Time;durP1;ratioP1;P1;durP2;ratioP2;P2;SDS_P1;SDS_P2;PMS_P1;PMS_P2;Temp;Humidity;BMP_temperature;BMP_pressure;BME280_temperature;BME280_humidity;BME280_pressure;Samples;Min_cycle;Max_cycle;Signal;HPM_P1;HPM_P2
2022/09/30 00:01:28;;;;;;;;;;;;;;;8.15;100.00;-25294.00;4998881;28;19917;-80
2022/09/30 00:04:02;;;;;;;;;;;;;;;8.16;100.00;-25294.28;5015758;28;19914;-78
2022/09/30 00:06:28;;;;;;;;;;;;;;;8.21;100.00;-25295.91;4999780;28;19917;-79
2022/09/30 00:08:54;;;;;;;;;;;;;;;8.22;100.00;-25296.19;5016108;28;19924;-78
2022/09/30 00:11:27;;;;;;;;;;;;;;;8.24;100.00;-25296.63;5016763;28;20037;-79
2022/09/30 00:13:54;;;;;;;;;;;;;;;8.20;100.00;-25295.47;5019852;28;19964;-78
2022/09/30 00:16:20;;;;;;;;;;;;;;;8.24;100.00;-25296.78;5019488;28;19921;-79
2022/09/30 00:18:46;;;;;;;;;;;;;;;8.22;100.00;-25296.19;5019143;28;19917;-79
2022/09/30 00:21:14;;;;;;;;;;;;;;;8.30;100.00;-25298.25;5005018;28;19924;-78
2022/09/30 00:23:41;;;;;;;;;;;;;;;8.33;100.00;-25299.28;4999106;28;19922;-79
2022/09/30 00:26:10;;;;;;;;;;;;;;;8.36;100.00;-25300.19;4999977;28;19925;-78
2022/09/30 00:28:36;;;;;;;;;;;;;;;8.36;100.00;-25300.19;4999197;28;19921;-78
2022/09/30 00:31:06;;;;;;;;;;;;;;;8.42;100.00;-25301.78;5016787;28;19925;-79
2022/09/30 00:33:32;;;;;;;;;;;;;;;8.48;100.00;-25303.56;5011783;28;19921;-78
2022/09/30 00:35:58;;;;;;;;;;;;;;;8.51;100.00;-25304.31;5019462;28;20059;-79
2022/09/30 00:38:23;;;;;;;;;;;;;;;8.57;100.00;-25306.06;5019007;28;19968;-78
2022/09/30 00:40:50;;;;;;;;;;;;;;;8.55;100.00;-25305.63;5019387;28;19924;-78
2022/09/30 00:43:19;;;;;;;;;;;;;;;8.56;100.00;-25305.91;4994471;28;20024;-78
2022/09/30 00:45:50;;;;;;;;;;;;;;;8.58;100.00;-25306.50;5002036;28;20012;-79
2022/09/30 00:48:42;;;;;;;;;;;;;;;8.59;100.00;-25306.66;4999743;28;19933;-78
2022/09/30 00:51:07;;;;;;;;;;;;;;;8.56;100.00;-25305.91;4999529;28;20357;-79
2022/09/30 00:53:38;;;;;;;;;;;;;;;8.53;100.00;-25305.03;5006550;28;19928;-78
2022/09/30 00:56:05;;;;;;;;;;;;;;;8.51;100.00;-25304.44;4998564;28;19940;-79
2022/09/30 00:58:36;;;;;;;;;;;;;;;8.51;100.00;-25304.31;4998427;28;19925;-79
2022/09/30 01:01:01;;;;;;;;;;;;;;;8.50;100.00;-25304.00;4999616;28;20417;-79
2022/09/30 01:03:32;;;;;;;;;;;;;;;8.45;100.00;-25302.69;4999424;28;19972;-79
2022/09/30 01:05:59;;;;;;;;;;;;;;;8.39;100.00;-25301.06;5015650;28;19918;-78
2022/09/30 01:08:25;;;;;;;;;;;;;;;8.40;100.00;-25301.22;4997642;28;20538;-79
2022/09/30 01:10:50;;;;;;;;;;;;;;;8.39;100.00;-25300.91;4998765;28;20346;-79
2022/09/30 01:13:19;;;;;;;;;;;;;;;8.36;100.00;-25300.03;5005528;28;19921;-79
2022/09/30 01:15:50;;;;;;;;;;;;;;;8.32;100.00;-25298.84;5017206;28;20017;-79
2022/09/30 01:18:33;;;;;;;;;;;;;;;8.25;100.00;-25296.94;5011871;28;19922;-79
2022/09/30 01:20:58;;;;;;;;;;;;;;;8.18;100.00;-25294.88;4998992;28;19963;-78
2022/09/30 01:23:25;;;;;;;;;;;;;;;8.12;100.00;-25293.09;5005777;28;19921;-79
2022/09/30 01:26:00;;;;;;;;;;;;;;;8.08;100.00;-25292.22;5017484;28;20429;-79
2022/09/30 01:28:44;;;;;;;;;;;;;;;8.01;100.00;-25290.16;5017762;28;20055;-79
2022/09/30 01:31:45;;;;;;;;;;;;;;;7.93;100.00;-25287.66;5017679;28;19944;-79
2022/09/30 01:34:20;;;;;;;;;;;;;;;7.89;100.00;-25286.78;4954407;29;20029;-78
2022/09/30 01:36:49;;;;;;;;;;;;;;;7.83;100.00;-25285.00;5006411;28;19952;-79
2022/09/30 01:39:23;;;;;;;;;;;;;;;7.80;100.00;-25283.97;5016324;28;19961;-79
2022/09/30 01:41:51;;;;;;;;;;;;;;;7.73;100.00;-25282.06;5004025;28;19921;-79
2022/09/30 01:44:36;;;;;;;;;;;;;;;7.69;100.00;-25280.88;4996340;28;19922;-79
2022/09/30 01:47:12;;;;;;;;;;;;;;;7.63;100.00;-25279.25;5003110;28;19929;-79
2022/09/30 01:49:41;;;;;;;;;;;;;;;7.59;100.00;-25277.94;5002617;28;20008;-78
2022/09/30 01:52:09;;;;;;;;;;;;;;;7.59;100.00;-25277.94;5001109;28;20294;-80
2022/09/30 01:54:38;;;;;;;;;;;;;;;7.56;100.00;-25277.19;5015318;28;20488;-80
2022/09/30 01:57:18;;;;;;;;;;;;;;;7.51;100.00;-25275.88;5018164;28;20369;-79
2022/09/30 01:59:46;;;;;;;;;;;;;;;7.44;100.00;-25273.81;5019181;28;19917;-79
2022/09/30 02:02:14;;;;;;;;;;;;;;;7.39;100.00;-25272.19;5012015;28;19924;-80
2022/09/30 02:04:46;;;;;;;;;;;;;;;7.33;100.00;-25270.72;5000091;28;19917;-79
2022/09/30 02:07:17;;;;;;;;;;;;;;;7.32;100.00;-25270.25;4999990;28;20004;-79
2022/09/30 02:09:48;;;;;;;;;;;;;;;7.28;100.00;-25269.22;5000052;28;19977;-79
2022/09/30 02:12:19;;;;;;;;;;;;;;;7.23;100.00;-25267.75;4998487;28;19947;-79
2022/09/30 02:14:50;;;;;;;;;;;;;;;7.22;100.00;-25267.47;4998882;28;19917;-79
2022/09/30 02:17:19;;;;;;;;;;;;;;;7.22;100.00;-25267.31;4997371;28;19940;-79
2022/09/30 02:19:46;;;;;;;;;;;;;;;7.19;100.00;-25266.56;4997270;28;19918;-79
2022/09/30 02:22:18;;;;;;;;;;;;;;;7.22;100.00;-25267.47;4997776;28;19921;-79
2022/09/30 02:24:46;;;;;;;;;;;;;;;7.16;100.00;-25265.69;5031264;28;19921;-79
2022/09/30 02:27:27;;;;;;;;;;;;;;;7.08;100.00;-25263.47;5017093;28;19921;-79
2022/09/30 02:29:55;;;;;;;;;;;;;;;7.10;100.00;-25263.91;5008739;28;20393;-79
2022/09/30 02:32:24;;;;;;;;;;;;;;;7.13;100.00;-25264.81;4996656;28;19921;-79
2022/09/30 02:34:52;;;;;;;;;;;;;;;7.13;100.00;-25264.81;4996542;28;19928;-79
2022/09/30 02:37:41;;;;;;;;;;;;;;;7.15;100.00;-25265.41;4996721;28;19917;-80
2022/09/30 02:40:18;;;;;;;;;;;;;;;7.13;100.00;-25264.81;4989017;28;20293;-79
2022/09/30 02:42:45;;;;;;;;;;;;;;;7.09;100.00;-25263.78;4996958;28;19921;-79
2022/09/30 02:45:15;;;;;;;;;;;;;;;7.13;100.00;-25264.94;5032970;28;19925;-79
2022/09/30 02:47:59;;;;;;;;;;;;;;;7.10;100.00;-25264.06;5016208;28;19929;-78
2022/09/30 02:50:27;;;;;;;;;;;;;;;7.06;100.00;-25262.88;5017026;28;19975;-79
2022/09/30 02:53:10;;;;;;;;;;;;;;;7.05;100.00;-25262.44;5020533;28;19957;-79
2022/09/30 02:55:48;;;;;;;;;;;;;;;7.05;100.00;-25262.59;5020169;28;19917;-79
2022/09/30 02:58:18;;;;;;;;;;;;;;;7.07;100.00;-25263.19;5019774;28;19929;-80
2022/09/30 03:00:44;;;;;;;;;;;;;;;7.08;100.00;-25263.47;5019992;28;19914;-79
2022/09/30 03:03:35;;;;;;;;;;;;;;;7.05;100.00;-25262.59;5004025;28;19926;-79
2022/09/30 03:06:01;;;;;;;;;;;;;;;7.01;100.00;-25261.41;5032245;28;19925;-79
2022/09/30 03:08:26;;;;;;;;;;;;;;;6.94;100.00;-25259.34;5036975;28;19916;-80
2022/09/30 03:10:52;;;;;;;;;;;;;;;6.95;100.00;-25259.63;4991443;28;19924;-80
2022/09/30 03:13:27;;;;;;;;;;;;;;;6.98;100.00;-25260.53;5001623;28;19917;-79
2022/09/30 03:16:02;;;;;;;;;;;;;;;6.92;100.00;-25258.75;5020040;28;19917;-79
2022/09/30 03:18:40;;;;;;;;;;;;;;;6.88;100.00;-25257.72;5019825;28;20374;-79
2022/09/30 03:21:24;;;;;;;;;;;;;;;6.82;100.00;-25255.94;5019914;28;20016;-79
2022/09/30 03:24:02;;;;;;;;;;;;;;;6.79;100.00;-25255.22;4996325;28;19922;-79
2022/09/30 03:26:46;;;;;;;;;;;;;;;6.77;100.00;-25254.63;4996225;28;20028;-80
2022/09/30 03:29:17;;;;;;;;;;;;;;;6.76;100.00;-25254.31;4996814;28;19924;-81
2022/09/30 03:32:01;;;;;;;;;;;;;;;6.78;100.00;-25254.91;4997584;28;19917;-81
2022/09/30 03:34:46;;;;;;;;;;;;;;;6.79;100.00;-25255.22;5015423;28;19917;-80
2022/09/30 03:37:21;;;;;;;;;;;;;;;6.79;100.00;-25255.22;5016152;28;19928;-81
2022/09/30 03:39:49;;;;;;;;;;;;;;;6.78;100.00;-25254.91;4999649;28;20362;-80
2022/09/30 03:42:33;;;;;;;;;;;;;;;6.79;100.00;-25255.22;5016906;28;19921;-80
2022/09/30 03:45:04;;;;;;;;;;;;;;;6.79;100.00;-25255.06;4999666;28;19918;-80
2022/09/30 03:47:32;;;;;;;;;;;;;;;6.72;100.00;-25253.00;4998909;28;20377;-80
2022/09/30 03:50:00;;;;;;;;;;;;;;;6.71;100.00;-25252.84;4999611;28;19964;-80
2022/09/30 03:52:26;;;;;;;;;;;;;;;6.65;100.00;-25251.22;4999050;28;19921;-80
2022/09/30 03:54:57;;;;;;;;;;;;;;;6.70;100.00;-25252.41;4998423;28;19971;-80
2022/09/30 03:57:25;;;;;;;;;;;;;;;6.70;100.00;-25252.41;4997229;28;19987;-79
2022/09/30 03:59:50;;;;;;;;;;;;;;;6.68;100.00;-25251.97;4999461;28;19944;-80
2022/09/30 04:02:18;;;;;;;;;;;;;;;6.69;100.00;-25252.13;4998232;28;19913;-80
2022/09/30 04:04:43;;;;;;;;;;;;;;;6.65;100.00;-25251.09;4999281;28;19924;-80
2022/09/30 04:07:09;;;;;;;;;;;;;;;6.60;100.00;-25249.59;4999523;28;19917;-80
2022/09/30 04:09:36;;;;;;;;;;;;;;;6.69;100.00;-25252.13;4998730;28;19917;-79
2022/09/30 04:12:01;;;;;;;;;;;;;;;6.72;100.00;-25253.16;4987260;28;19918;-80
2022/09/30 04:14:26;;;;;;;;;;;;;;;6.73;100.00;-25253.44;4988126;28;20341;-80
2022/09/30 04:16:52;;;;;;;;;;;;;;;6.80;100.00;-25255.34;5016222;28;20000;-81
2022/09/30 04:19:18;;;;;;;;;;;;;;;6.85;100.00;-25256.69;4998508;28;19943;-80
2022/09/30 04:21:47;;;;;;;;;;;;;;;6.92;100.00;-25258.75;5019397;28;19929;-80
2022/09/30 04:24:16;;;;;;;;;;;;;;;6.94;100.00;-25259.34;5028040;28;19924;-81
2022/09/30 04:26:48;;;;;;;;;;;;;;;6.91;100.00;-25258.47;4999177;28;19953;-81
2022/09/30 04:29:13;;;;;;;;;;;;;;;6.93;100.00;-25259.03;4999185;28;19922;-81
2022/09/30 04:31:47;;;;;;;;;;;;;;;6.93;100.00;-25259.03;5016587;28;19917;-81
2022/09/30 04:34:15;;;;;;;;;;;;;;;6.94;100.00;-25259.34;4998675;28;19925;-80
2022/09/30 04:36:41;;;;;;;;;;;;;;;6.92;100.00;-25258.75;4998756;28;20009;-80
2022/09/30 04:39:07;;;;;;;;;;;;;;;6.94;100.00;-25259.50;4999130;28;19963;-80
2022/09/30 04:41:33;;;;;;;;;;;;;;;6.98;100.00;-25260.66;4999020;28;19925;-80
2022/09/30 04:44:05;;;;;;;;;;;;;;;7.04;100.00;-25262.16;5014741;28;19999;-79
2022/09/30 04:46:30;;;;;;;;;;;;;;;7.04;100.00;-25262.16;5014760;28;19921;-79
2022/09/30 04:48:56;;;;;;;;;;;;;;;7.04;100.00;-25262.28;5015741;28;19913;-80
2022/09/30 04:51:21;;;;;;;;;;;;;;;7.01;100.00;-25261.41;4998505;28;19928;-81
2022/09/30 04:53:49;;;;;;;;;;;;;;;6.98;100.00;-25260.53;4998591;28;19953;-80
2022/09/30 04:56:18;;;;;;;;;;;;;;;6.95;100.00;-25259.63;5028543;28;19916;-80
2022/09/30 04:58:45;;;;;;;;;;;;;;;6.98;100.00;-25260.53;5018573;28;19917;-79
2022/09/30 05:01:12;;;;;;;;;;;;;;;6.99;100.00;-25260.81;5018440;28;20332;-80
2022/09/30 05:03:49;;;;;;;;;;;;;;;7.01;100.00;-25261.41;5001520;28;20385;-80
2022/09/30 05:06:15;;;;;;;;;;;;;;;7.00;100.00;-25261.25;5017369;28;19971;-80
2022/09/30 05:08:44;;;;;;;;;;;;;;;6.98;100.00;-25260.53;5017368;28;19921;-80
2022/09/30 05:11:13;;;;;;;;;;;;;;;6.95;100.00;-25259.78;5017612;28;19963;-80
2022/09/30 05:13:42;;;;;;;;;;;;;;;6.96;100.00;-25259.94;5000450;28;20345;-80
2022/09/30 05:16:08;;;;;;;;;;;;;;;6.97;100.00;-25260.22;5005480;28;20012;-80
2022/09/30 05:18:44;;;;;;;;;;;;;;;6.95;100.00;-25259.63;4997328;28;20254;-80
2022/09/30 05:21:11;;;;;;;;;;;;;;;6.93;100.00;-25259.03;4981776;28;20370;-80
2022/09/30 05:23:38;;;;;;;;;;;;;;;6.89;100.00;-25258.00;4980931;28;19925;-80
2022/09/30 05:26:04;;;;;;;;;;;;;;;6.89;100.00;-25257.88;5015077;28;20004;-80
2022/09/30 05:28:30;;;;;;;;;;;;;;;6.88;100.00;-25257.72;4997133;28;20452;-80
2022/09/30 05:30:58;;;;;;;;;;;;;;;6.88;100.00;-25257.56;4997482;28;19921;-80
2022/09/30 05:33:24;;;;;;;;;;;;;;;6.89;100.00;-25257.88;5014543;28;19917;-81
2022/09/30 05:35:50;;;;;;;;;;;;;;;6.89;100.00;-25258.00;4981266;28;20068;-80
2022/09/30 05:38:18;;;;;;;;;;;;;;;6.86;100.00;-25256.97;5011606;28;20389;-80
2022/09/30 05:40:43;;;;;;;;;;;;;;;6.86;100.00;-25257.13;5016693;28;19925;-80
2022/09/30 05:43:13;;;;;;;;;;;;;;;6.89;100.00;-25257.88;5000366;28;19917;-80
2022/09/30 05:45:38;;;;;;;;;;;;;;;6.93;100.00;-25259.03;4996963;28;19964;-80
2022/09/30 05:48:05;;;;;;;;;;;;;;;6.93;100.00;-25259.03;4996990;28;19921;-81
2022/09/30 05:50:31;;;;;;;;;;;;;;;6.97;100.00;-25260.38;4980689;28;19932;-81
2022/09/30 05:52:57;;;;;;;;;;;;;;;7.07;100.00;-25263.03;4997124;28;20004;-80
2022/09/30 05:55:24;;;;;;;;;;;;;;;7.11;99.91;-25264.34;5011307;28;19982;-81
2022/09/30 05:57:51;;;;;;;;;;;;;;;7.14;98.77;-25265.25;5014748;28;19948;-81
2022/09/30 06:00:44;;;;;;;;;;;;;;;7.20;97.49;-25266.88;5014990;28;19913;-81
2022/09/30 06:03:22;;;;;;;;;;;;;;;7.27;96.06;-25268.78;5017895;28;19925;-81
2022/09/30 06:05:51;;;;;;;;;;;;;;;7.35;95.29;-25271.28;5001879;28;19921;-81
2022/09/30 06:08:49;;;;;;;;;;;;;;;7.40;95.63;-25272.63;5024398;28;19932;-81
2022/09/30 06:11:17;;;;;;;;;;;;;;;7.66;94.63;-25280.13;4994967;28;19968;-81
2022/09/30 06:14:06;;;;;;;;;;;;;;;7.95;93.48;-25288.38;4995158;28;20361;-81
2022/09/30 06:16:34;;;;;;;;;;;;;;;8.30;93.89;-25298.25;5018196;28;19973;-80
2022/09/30 06:19:05;;;;;;;;;;;;;;;8.69;99.67;-25309.59;5024501;28;19914;-80
2022/09/30 06:21:31;;;;;;;;;;;;;;;8.97;100.00;-25317.69;4986959;28;19930;-80
2022/09/30 06:23:57;;;;;;;;;;;;;;;9.02;100.00;-25318.88;4999171;28;19925;-79
2022/09/30 06:26:22;;;;;;;;;;;;;;;8.91;100.00;-25315.78;4995556;28;19922;-79
2022/09/30 06:28:52;;;;;;;;;;;;;;;8.82;100.00;-25313.28;4996702;28;19924;-80
2022/09/30 06:31:18;;;;;;;;;;;;;;;8.80;100.00;-25312.84;5029284;28;19943;-80
2022/09/30 06:33:54;;;;;;;;;;;;;;;8.88;100.00;-25315.03;4984136;28;19992;-80
2022/09/30 06:36:41;;;;;;;;;;;;;;;9.00;100.00;-25318.44;5000907;28;19929;-81
2022/09/30 06:39:16;;;;;;;;;;;;;;;9.47;100.00;-25331.81;5010174;28;19932;-80
2022/09/30 06:42:07;;;;;;;;;;;;;;;9.58;100.00;-25334.88;4996263;28;19964;-81
2022/09/30 06:45:21;;;;;;;;;;;;;;;9.56;100.00;-25334.44;5010327;28;19917;-80
2022/09/30 06:48:17;;;;;;;;;;;;;;;9.42;100.00;-25330.47;5013862;28;19925;-81
2022/09/30 06:51:11;;;;;;;;;;;;;;;9.43;100.00;-25330.78;5013461;28;19925;-80
2022/09/30 06:53:49;;;;;;;;;;;;;;;9.46;100.00;-25331.66;5009192;28;19917;-80
2022/09/30 06:56:16;;;;;;;;;;;;;;;9.57;100.00;-25334.59;4979909;28;20378;-80
2022/09/30 06:58:56;;;;;;;;;;;;;;;9.70;100.00;-25338.41;5012213;28;20449;-80
2022/09/30 07:01:23;;;;;;;;;;;;;;;9.74;100.00;-25339.44;4993845;28;19964;-81
2022/09/30 07:04:11;;;;;;;;;;;;;;;9.72;100.00;-25338.84;5007281;28;20270;-80
2022/09/30 07:06:43;;;;;;;;;;;;;;;9.84;100.00;-25342.38;5011363;28;19922;-79
2022/09/30 07:09:37;;;;;;;;;;;;;;;10.21;100.00;-25353.09;5012527;28;20347;-81
2022/09/30 07:12:35;;;;;;;;;;;;;;;10.26;100.00;-25354.41;5013698;28;20021;-80
2022/09/30 07:15:27;;;;;;;;;;;;;;;10.35;100.00;-25357.06;5006039;28;19940;-78
2022/09/30 07:18:12;;;;;;;;;;;;;;;10.51;100.00;-25361.47;4972387;28;19921;-81
2022/09/30 07:20:59;;;;;;;;;;;;;;;10.57;100.00;-25363.38;4955055;28;20004;-81
2022/09/30 07:23:46;;;;;;;;;;;;;;;10.66;100.00;-25365.88;5091001;27;19920;-78
2022/09/30 07:26:16;;;;;;;;;;;;;;;10.72;100.00;-25367.63;5107698;28;19966;-80
2022/09/30 07:28:42;;;;;;;;;;;;;;;10.86;100.00;-25371.44;5073301;28;19917;-81
2022/09/30 07:31:10;;;;;;;;;;;;;;;10.82;100.00;-25370.41;5073456;28;19994;-81
2022/09/30 07:33:39;;;;;;;;;;;;;;;10.90;100.00;-25372.75;5073068;28;20298;-78
2022/09/30 07:36:07;;;;;;;;;;;;;;;10.94;100.00;-25373.78;5073078;28;19920;-79
2022/09/30 07:38:33;;;;;;;;;;;;;;;10.93;100.00;-25373.63;5073394;28;19986;-79
2022/09/30 07:41:02;;;;;;;;;;;;;;;10.94;100.00;-25373.78;5072889;28;19924;-78
2022/09/30 07:43:39;;;;;;;;;;;;;;;10.99;100.00;-25375.25;5072843;28;19940;-80
2022/09/30 07:46:13;;;;;;;;;;;;;;;11.07;100.00;-25377.44;5073535;28;19924;-79
2022/09/30 07:48:42;;;;;;;;;;;;;;;11.50;100.00;-25389.75;5073467;28;19917;-81
2022/09/30 07:51:09;;;;;;;;;;;;;;;12.22;100.00;-25410.25;5073113;28;19917;-82
2022/09/30 07:53:36;;;;;;;;;;;;;;;13.12;100.00;-25435.84;5072732;28;19920;-81
2022/09/30 07:56:04;;;;;;;;;;;;;;;13.77;100.00;-25454.22;5072883;28;19916;-81
2022/09/30 07:58:30;;;;;;;;;;;;;;;14.50;100.00;-25474.94;5072943;28;19922;-81
2022/09/30 08:00:55;;;;;;;;;;;;;;;14.85;100.00;-25484.84;5072653;28;20003;-82
2022/09/30 08:03:27;;;;;;;;;;;;;;;15.21;100.00;-18582.63;5072358;28;19916;-80
2022/09/30 08:05:53;;;;;;;;;;;;;;;15.11;100.00;-4063.47;5072977;28;19969;-79
2022/09/30 08:08:18;;;;;;;;;;;;;;;15.22;100.00;15493.50;5072534;28;19924;-80
2022/09/30 08:10:44;;;;;;;;;;;;;;;15.65;100.00;36849.16;5072198;28;19916;-81
2022/09/30 08:13:12;;;;;;;;;;;;;;;15.90;100.00;68434.34;5072423;28;19916;-81
2022/09/30 08:15:38;;;;;;;;;;;;;;;16.24;100.00;107458.91;5072427;28;19916;-81
2022/09/30 08:18:03;;;;;;;;;;;;;;;15.92;100.00;146738.94;5072301;28;20069;-79
2022/09/30 08:20:29;;;;;;;;;;;;;;;15.96;100.00;146747.91;5071928;28;20348;-80
2022/09/30 08:22:54;;;;;;;;;;;;;;;16.27;100.00;146825.81;5071992;28;19948;-79
2022/09/30 08:25:21;;;;;;;;;;;;;;;15.87;100.00;146724.91;5070405;28;20315;-79
2022/09/30 08:27:46;;;;;;;;;;;;;;;16.06;100.00;146773.41;5070966;28;20360;-79
2022/09/30 08:30:11;;;;;;;;;;;;;;;15.96;100.00;146749.16;5071579;28;19917;-79
2022/09/30 08:32:41;;;;;;;;;;;;;;;16.21;100.00;146810.47;5071200;28;19917;-80
2022/09/30 08:35:06;;;;;;;;;;;;;;;16.15;100.00;146795.16;5057870;28;19916;-78
2022/09/30 08:37:32;;;;;;;;;;;;;;;16.31;100.00;146834.72;5057725;28;19943;-78
2022/09/30 08:39:57;;;;;;;;;;;;;;;16.42;100.00;146862.88;5058296;28;19917;-78
2022/09/30 08:42:38;;;;;;;;;;;;;;;16.49;100.00;146880.72;5057967;28;20319;-79
2022/09/30 08:45:18;;;;;;;;;;;;;;;16.49;100.00;146880.72;5057855;28;19920;-78
2022/09/30 08:48:22;;;;;;;;;;;;;;;16.11;100.00;146786.22;5058403;28;20316;-79
2022/09/30 08:51:00;;;;;;;;;;;;;;;15.75;100.00;146696.78;5033801;28;19924;-78
2022/09/30 08:53:29;;;;;;;;;;;;;;;15.59;100.00;146655.91;5016747;28;20014;-78
2022/09/30 08:55:56;;;;;;;;;;;;;;;15.66;100.00;146672.50;5040248;28;20265;-79
2022/09/30 08:58:25;;;;;;;;;;;;;;;15.51;100.00;146635.50;5075634;28;19923;-77
2022/09/30 09:00:53;;;;;;;;;;;;;;;15.26;100.00;146574.22;5057986;28;19920;-77
2022/09/30 09:03:21;;;;;;;;;;;;;;;15.21;100.00;146561.44;5057703;28;19917;-79
2022/09/30 09:05:49;;;;;;;;;;;;;;;15.36;100.00;146599.72;5058096;28;19921;-80
2022/09/30 09:08:21;;;;;;;;;;;;;;;15.29;100.00;146581.88;5057560;28;20470;-77
2022/09/30 09:10:50;;;;;;;;;;;;;;;15.30;100.00;146584.41;5057438;28;19923;-77
2022/09/30 09:13:24;;;;;;;;;;;;;;;15.30;100.00;146583.13;5057666;28;19920;-78
2022/09/30 09:16:02;;;;;;;;;;;;;;;15.32;100.00;146589.53;5057627;28;19917;-77
2022/09/30 09:19:05;;;;;;;;;;;;;;;15.35;100.00;146595.88;5057084;28;19913;-78
2022/09/30 09:21:50;;;;;;;;;;;;;;;15.11;100.00;146537.19;5032119;28;19921;-79
2022/09/30 09:24:37;;;;;;;;;;;;;;;15.14;100.00;146544.84;5014711;28;19972;-78
2022/09/30 09:27:11;;;;;;;;;;;;;;;15.11;100.00;146535.94;5045071;28;19916;-78
2022/09/30 09:29:48;;;;;;;;;;;;;;;15.12;100.00;146539.75;5056033;28;19917;-79
2022/09/30 09:32:16;;;;;;;;;;;;;;;15.27;100.00;146576.75;5088893;28;20381;-79
2022/09/30 09:34:42;;;;;;;;;;;;;;;15.45;100.00;146621.44;5055806;28;19999;-79
2022/09/30 09:37:18;;;;;;;;;;;;;;;15.47;100.00;146625.28;5055901;28;20351;-79
2022/09/30 09:40:01;;;;;;;;;;;;;;;15.50;100.00;146634.19;5057877;28;19921;-81
2022/09/30 09:42:26;;;;;;;;;;;;;;;15.57;100.00;146652.09;5057783;28;19963;-78
2022/09/30 09:44:57;;;;;;;;;;;;;;;15.62;100.00;146663.56;5055406;28;19917;-80
2022/09/30 09:47:22;;;;;;;;;;;;;;;15.66;100.00;146672.50;5056045;28;19946;-81
2022/09/30 09:50:02;;;;;;;;;;;;;;;15.50;100.00;146632.94;5059216;28;20365;-79
2022/09/30 09:52:43;;;;;;;;;;;;;;;15.56;100.00;146648.25;5057844;28;20225;-81
2022/09/30 09:55:10;;;;;;;;;;;;;;;15.58;100.00;146653.34;5059121;28;20012;-81
2022/09/30 09:57:35;;;;;;;;;;;;;;;15.84;100.00;146717.25;5058244;28;20027;-81
2022/09/30 10:03:25;;;;;;;;;;;;;;;15.69;100.00;146680.16;5078958;28;19939;-80
2022/09/30 10:06:04;;;;;;;;;;;;;;;15.84;100.00;146717.25;5047462;28;19924;-81
2022/09/30 10:08:32;;;;;;;;;;;;;;;15.86;100.00;146722.34;5075922;28;19939;-82
2022/09/30 10:10:59;;;;;;;;;;;;;;;15.94;100.00;146744.06;5057878;28;19916;-79
2022/09/30 10:13:27;;;;;;;;;;;;;;;15.89;100.00;146731.28;5057246;28;19916;-79
2022/09/30 10:15:55;;;;;;;;;;;;;;;15.75;100.00;146695.47;5058427;28;19917;-81
2022/09/30 10:18:44;;;;;;;;;;;;;;;15.88;100.00;146727.44;5073441;28;19923;-79
2022/09/30 10:21:30;;;;;;;;;;;;;;;15.85;100.00;146721.09;5074539;28;19917;-78
2022/09/30 10:24:20;;;;;;;;;;;;;;;15.83;100.00;146715.94;5055328;28;19971;-82
2022/09/30 10:26:52;;;;;;;;;;;;;;;15.91;100.00;146736.41;5055518;28;19921;-81
2022/09/30 10:29:28;;;;;;;;;;;;;;;16.01;100.00;146760.66;5055365;28;19923;-82
2022/09/30 10:31:58;;;;;;;;;;;;;;;16.26;100.00;146821.97;5053933;28;20423;-82
2022/09/30 10:34:39;;;;;;;;;;;;;;;16.36;100.00;146847.53;5054927;28;20420;-79
2022/09/30 10:37:22;;;;;;;;;;;;;;;16.55;100.00;146893.53;5052630;28;19917;-80
2022/09/30 10:40:00;;;;;;;;;;;;;;;16.61;100.00;146908.81;5069768;28;19927;-80
2022/09/30 10:42:50;;;;;;;;;;;;;;;16.74;100.00;146942.06;5052783;28;19921;-80
2022/09/30 10:45:50;;;;;;;;;;;;;;;16.49;100.00;146879.47;5055862;28;19917;-81
2022/09/30 10:48:34;;;;;;;;;;;;;;;16.24;100.00;146818.13;5054478;28;19936;-79
2022/09/30 10:50:59;;;;;;;;;;;;;;;16.49;100.00;146880.72;5053352;28;19920;-80
2022/09/30 10:53:28;;;;;;;;;;;;;;;17.07;100.00;147023.88;5070310;28;19947;-78
2022/09/30 10:55:56;;;;;;;;;;;;;;;17.48;100.00;147126.16;5055144;28;19924;-81
2022/09/30 10:58:46;;;;;;;;;;;;;;;17.38;100.00;147100.59;5054962;28;19940;-79
2022/09/30 11:01:38;;;;;;;;;;;;;;;17.16;100.00;147046.88;5054970;28;19963;-82
2022/09/30 11:04:33;;;;;;;;;;;;;;;17.34;100.00;147091.66;5054857;28;19917;-80
2022/09/30 11:07:20;;;;;;;;;;;;;;;17.04;100.00;147017.53;5051076;28;19917;-80
2022/09/30 11:09:49;;;;;;;;;;;;;;;17.09;100.00;147029.03;5054315;28;19921;-83
2022/09/30 11:12:41;;;;;;;;;;;;;;;16.82;100.00;146962.47;5054199;28;19943;-81
2022/09/30 11:15:24;;;;;;;;;;;;;;;16.67;100.00;146924.16;5054903;28;19967;-82
2022/09/30 11:18:10;;;;;;;;;;;;;;;16.43;100.00;146865.38;5054671;28;19917;-84
2022/09/30 11:20:41;;;;;;;;;;;;;;;16.46;100.00;146873.06;5053876;28;20388;-81
2022/09/30 11:23:26;;;;;;;;;;;;;;;16.70;100.00;146931.81;5070316;28;19925;-81
2022/09/30 11:26:03;;;;;;;;;;;;;;;17.13;100.00;147037.97;5072942;28;19917;-82
2022/09/30 11:28:51;;;;;;;;;;;;;;;17.45;100.00;147117.19;5072038;28;19916;-81
2022/09/30 11:31:37;;;;;;;;;;;;;;;17.62;100.00;147160.69;5072197;28;20434;-79
2022/09/30 11:34:22;;;;;;;;;;;;;;;17.56;100.00;147145.34;5053638;28;19960;-81
2022/09/30 11:37:04;;;;;;;;;;;;;;;17.07;100.00;147023.88;5072683;28;19966;-78
2022/09/30 11:39:50;;;;;;;;;;;;;;;16.42;100.00;146862.88;5070802;28;19950;-79
2022/09/30 11:42:21;;;;;;;;;;;;;;;16.51;100.00;146885.88;5070725;28;20384;-80
2022/09/30 11:44:52;;;;;;;;;;;;;;;16.59;100.00;146904.97;5072145;28;19917;-80
2022/09/30 11:47:19;;;;;;;;;;;;;;;16.84;100.00;146967.63;5072159;28;19916;-79
2022/09/30 11:49:57;;;;;;;;;;;;;;;16.91;100.00;146983.00;5071678;28;20439;-80
2022/09/30 11:52:41;;;;;;;;;;;;;;;16.99;100.00;147003.44;5071467;28;19917;-82
2022/09/30 11:55:09;;;;;;;;;;;;;;;16.92;100.00;146985.53;5071784;28;19978;-82
2022/09/30 11:57:46;;;;;;;;;;;;;;;17.09;100.00;147029.03;5070725;28;20264;-82
2022/09/30 12:00:14;;;;;;;;;;;;;;;17.11;100.00;147034.13;5070826;28;19938;-80
2022/09/30 12:02:55;;;;;;;;;;;;;;;17.05;100.00;147018.78;5049628;28;19935;-80
2022/09/30 12:05:20;;;;;;;;;;;;;;;17.18;100.00;147052.03;5051781;28;19917;-80
2022/09/30 12:07:49;;;;;;;;;;;;;;;17.02;100.00;147011.13;5052946;28;19923;-81
2022/09/30 12:10:32;;;;;;;;;;;;;;;17.06;100.00;147021.34;5055620;28;19924;-78
2022/09/30 12:13:02;;;;;;;;;;;;;;;16.97;100.00;146998.34;5073180;28;19936;-81
2022/09/30 12:15:29;;;;;;;;;;;;;;;17.21;100.00;147058.41;5072525;28;19920;-80
2022/09/30 12:17:57;;;;;;;;;;;;;;;17.06;100.00;147021.34;5056759;28;19924;-81
2022/09/30 12:20:25;;;;;;;;;;;;;;;16.91;100.00;146983.00;5057404;28;19916;-79
2022/09/30 12:23:09;;;;;;;;;;;;;;;16.93;100.00;146989.38;5045028;28;19921;-79
2022/09/30 12:26:01;;;;;;;;;;;;;;;16.94;100.00;146990.69;5035208;28;19917;-80
2022/09/30 12:31:16;;;;;;;;;;;;;;;16.63;100.00;146913.97;5036037;28;19924;-79
2022/09/30 12:33:53;;;;;;;;;;;;;;;16.45;100.00;146870.53;5034790;28;19917;-81
2022/09/30 12:36:38;;;;;;;;;;;;;;;16.30;100.00;146833.47;5036313;28;19917;-79
2022/09/30 12:39:25;;;;;;;;;;;;;;;16.30;100.00;146832.22;5035960;28;20259;-79
2022/09/30 12:42:16;;;;;;;;;;;;;;;16.25;100.00;146819.41;5034634;28;20008;-80
2022/09/30 12:45:01;;;;;;;;;;;;;;;16.18;100.00;146802.81;5034516;28;20000;-80
2022/09/30 12:47:44;;;;;;;;;;;;;;;16.02;100.00;146761.91;5037274;28;20008;-79
2022/09/30 12:50:12;;;;;;;;;;;;;;;16.08;100.00;146777.25;5036134;28;19918;-80
2022/09/30 12:52:51;;;;;;;;;;;;;;;16.00;100.00;146756.81;5035387;28;19963;-79
2022/09/30 12:55:31;;;;;;;;;;;;;;;16.00;100.00;146756.81;5035018;28;19933;-81
2022/09/30 12:58:03;;;;;;;;;;;;;;;16.01;100.00;146760.66;5034980;28;19917;-80
2022/09/30 13:00:36;;;;;;;;;;;;;;;16.22;100.00;146813.03;5035661;28;20297;-79
2022/09/30 13:03:20;;;;;;;;;;;;;;;16.48;100.00;146876.88;5067574;28;19921;-81
2022/09/30 13:05:46;;;;;;;;;;;;;;;16.74;100.00;146940.78;5034706;28;19921;-77
2022/09/30 13:08:20;;;;;;;;;;;;;;;16.77;100.00;146949.72;5036223;28;19940;-80
2022/09/30 13:10:52;;;;;;;;;;;;;;;16.88;100.00;146976.59;5034423;28;20346;-80